< < Back
Terminal Aerodrome Forecast


Current Version              Previous Versions:   1  2  3  4  5  6  7  8  9  

Terminal Aerodrome Forecast

846
FTUS44 KHUN 310520
TAFHSV
TAF
KHSV 310520Z 3106/0106 11004KT P6SM SCT040
     FM310800 09002KT 3SM BR BKN015
      TEMPO 3111/3113 1SM BR BKN008 OVC015
     FM311400 VRB02KT P6SM SCT030 BKN050
     FM010100 VRB02KT P6SM SCT050=

Latest METAR

651
SAUS80 KWBC 010100 RRD
MTRHSV
METAR KHSV 010053Z 00000KT 10SM FEW070 SCT250 25/21 A3008 RMK AO2 SLP178
T02500211


USA.gov is the U.S. government's official web portal to all federal, state and local government web resources and services.